createdAt,value
2022-11-06T00:00:19.848Z,61.1
2022-11-06T00:05:19.973Z,61.1
2022-11-06T00:10:19.914Z,60.9
2022-11-06T00:15:19.870Z,61.2
2022-11-06T00:20:19.832Z,61.0
2022-11-06T00:25:19.900Z,60.8
2022-11-06T00:30:19.840Z,61.2
2022-11-06T00:35:16.914Z,61.2
2022-11-06T00:40:16.773Z,61.1
2022-11-06T00:45:20.019Z,61.0
2022-11-06T00:50:20.058Z,61.3
2022-11-06T00:55:19.895Z,61.1
2022-11-06T01:00:19.991Z,61.1
2022-11-06T01:05:20.050Z,60.9
2022-11-06T01:10:19.966Z,61.2
2022-11-06T01:15:19.919Z,61.2
2022-11-06T01:20:19.951Z,61.1
2022-11-06T01:25:20.018Z,61.0
2022-11-06T01:30:16.847Z,61.2
2022-11-06T01:35:16.804Z,61.0
2022-11-06T01:40:19.988Z,60.9
2022-11-06T01:45:20.048Z,60.8
2022-11-06T01:50:20.167Z,61.1
2022-11-06T01:55:20.027Z,61.0
2022-11-06T02:00:19.933Z,60.8
2022-11-06T02:05:20.068Z,60.9
2022-11-06T02:10:20.092Z,61.2
2022-11-06T02:15:20.033Z,61.3
2022-11-06T02:20:19.970Z,61.2
2022-11-06T02:25:16.983Z,61.4
2022-11-06T02:30:17.109Z,61.3
2022-11-06T02:35:20.112Z,61.2
2022-11-06T02:40:20.240Z,61.6
2022-11-06T02:45:20.042Z,61.4
2022-11-06T02:50:20.132Z,61.4
2022-11-06T02:55:20.280Z,61.5
2022-11-06T03:00:20.086Z,61.3
2022-11-06T03:05:20.142Z,61.4
2022-11-06T03:10:20.343Z,61.3
2022-11-06T03:15:17.011Z,61.2
2022-11-06T03:20:17.044Z,61.4
2022-11-06T03:25:20.142Z,61.3
2022-11-06T03:30:20.196Z,61.2
2022-11-06T03:35:20.198Z,61.1
2022-11-06T03:40:20.134Z,61.1
2022-11-06T03:45:20.188Z,61.1
2022-11-06T03:50:20.237Z,61.0
2022-11-06T03:55:20.119Z,61.3
2022-11-06T04:00:19.462Z,61.1
2022-11-06T04:05:19.505Z,61.0
2022-11-06T04:10:19.406Z,60.9
2022-11-06T04:15:19.329Z,60.9
2022-11-06T04:20:19.429Z,60.9
2022-11-06T04:25:16.294Z,60.9
2022-11-06T04:30:19.447Z,60.8
2022-11-06T04:35:19.508Z,60.7
2022-11-06T04:40:19.495Z,61.1
2022-11-06T04:45:19.500Z,60.7
2022-11-06T04:50:19.429Z,60.8
2022-11-06T04:55:19.410Z,60.7
2022-11-06T05:00:19.500Z,61.1
2022-11-06T05:05:19.472Z,61.0
2022-11-06T05:10:19.497Z,60.9
2022-11-06T05:15:16.534Z,60.9
2022-11-06T05:20:16.389Z,60.8
2022-11-06T05:25:19.503Z,60.7
2022-11-06T05:30:19.605Z,60.8
2022-11-06T05:35:19.591Z,60.8
2022-11-06T05:40:19.511Z,60.8
2022-11-06T05:45:19.595Z,60.7
2022-11-06T05:50:19.569Z,60.9
2022-11-06T05:55:19.574Z,60.8
2022-11-06T07:00:19.696Z,60.8
2022-11-06T07:05:16.535Z,60.8
2022-11-06T07:10:19.684Z,60.9
2022-11-06T07:15:15.840Z,60.9
2022-11-06T07:20:15.538Z,61.5
2022-11-06T07:25:15.624Z,61.3
2022-11-06T07:30:18.560Z,61.3
2022-11-06T07:35:18.780Z,61.4
2022-11-06T07:40:18.885Z,61.5
2022-11-06T07:45:18.750Z,61.5
2022-11-06T07:50:18.656Z,61.6
2022-11-06T07:55:18.735Z,61.6
2022-11-06T08:00:18.714Z,61.7
2022-11-06T08:05:18.755Z,61.7
2022-11-06T08:10:18.656Z,61.8
2022-11-06T08:15:15.570Z,61.6
2022-11-06T08:20:18.655Z,61.5
2022-11-06T08:25:18.756Z,61.6
2022-11-06T08:30:18.633Z,61.6
2022-11-06T08:35:18.767Z,61.7
2022-11-06T08:40:18.808Z,61.6
2022-11-06T08:45:18.912Z,61.7
2022-11-06T08:50:18.840Z,61.7
2022-11-06T08:55:18.779Z,61.7
2022-11-06T09:00:18.912Z,61.8
2022-11-06T09:05:18.718Z,61.6
2022-11-06T09:10:15.572Z,61.6
2022-11-06T09:15:15.887Z,61.5
2022-11-06T09:20:18.880Z,61.7
2022-11-06T09:25:18.795Z,61.6
2022-11-06T09:30:18.711Z,61.6
2022-11-06T09:35:18.976Z,61.8
2022-11-06T09:40:18.871Z,61.7
2022-11-06T09:45:18.824Z,61.7
2022-11-06T09:50:18.905Z,61.7
2022-11-06T09:55:18.887Z,61.6
2022-11-06T10:00:15.786Z,61.6
2022-11-06T10:05:15.801Z,61.5
2022-11-06T10:10:19.017Z,61.4
2022-11-06T10:15:18.898Z,61.4
2022-11-06T10:20:23.662Z,61.6
2022-11-06T10:25:18.915Z,61.6
2022-11-06T10:30:18.822Z,61.5
2022-11-06T10:35:18.952Z,61.5
2022-11-06T10:40:18.985Z,61.4
2022-11-06T10:45:18.942Z,61.4
2022-11-06T10:50:19.056Z,61.3
2022-11-06T10:55:15.870Z,61.3
2022-11-06T11:00:15.884Z,61.3
2022-11-06T11:05:19.058Z,61.3
2022-11-06T11:10:18.996Z,61.2
2022-11-06T11:15:18.983Z,61.2
2022-11-06T11:20:19.074Z,61.2
2022-11-06T11:25:19.043Z,61.2
2022-11-06T11:30:18.897Z,61.1
2022-11-06T11:35:19.004Z,61.1
2022-11-06T11:40:18.998Z,61.0
2022-11-06T11:45:18.968Z,61.0
2022-11-06T11:50:15.912Z,61.1
2022-11-06T11:55:16.109Z,61.3
2022-11-06T12:00:19.017Z,61.2
2022-11-06T12:05:19.077Z,61.3
2022-11-06T12:10:19.097Z,61.4
2022-11-06T12:15:18.986Z,61.6
2022-11-06T12:20:18.948Z,61.4
2022-11-06T12:25:19.148Z,61.6
2022-11-06T12:30:18.929Z,61.7
2022-11-06T12:35:19.103Z,61.6
2022-11-06T12:40:18.459Z,61.8
2022-11-06T12:45:15.947Z,62.0
2022-11-06T12:50:19.143Z,62.1
2022-11-06T12:55:19.112Z,62.0
2022-11-06T13:00:19.179Z,62.1
2022-11-06T13:05:19.151Z,62.1
2022-11-06T13:10:19.200Z,62.2
2022-11-06T13:15:19.160Z,62.3
2022-11-06T13:20:19.088Z,62.2
2022-11-06T13:25:19.170Z,62.4
2022-11-06T13:30:19.123Z,62.5
2022-11-06T13:35:16.170Z,62.7
2022-11-06T13:40:19.266Z,62.4
2022-11-06T13:45:19.199Z,62.5
2022-11-06T13:50:19.203Z,62.6
2022-11-06T13:55:19.384Z,62.7
2022-11-06T14:00:19.170Z,62.8
2022-11-06T14:05:19.345Z,62.9
2022-11-06T14:10:19.144Z,62.8
2022-11-06T14:15:19.297Z,63.0
2022-11-06T14:20:19.077Z,63.1
2022-11-06T14:25:16.149Z,63.4
2022-11-06T14:30:16.093Z,63.4
2022-11-06T14:35:19.288Z,63.6
2022-11-06T14:40:19.453Z,63.8
2022-11-06T14:45:19.297Z,63.5
2022-11-06T14:50:19.316Z,63.9
2022-11-06T14:55:19.314Z,63.8
2022-11-06T15:00:22.412Z,64.1
2022-11-06T15:05:19.321Z,63.9
2022-11-06T15:10:19.330Z,63.7
2022-11-06T15:15:19.369Z,63.7
2022-11-06T15:20:16.172Z,63.8
2022-11-06T15:25:16.165Z,63.9
2022-11-06T15:30:19.447Z,63.9
2022-11-06T15:35:19.360Z,63.7
2022-11-06T15:40:19.319Z,63.9
2022-11-06T15:45:19.281Z,64.2
2022-11-06T15:50:19.309Z,63.9
2022-11-06T15:55:23.721Z,63.8
2022-11-06T16:00:19.377Z,63.8
2022-11-06T16:05:19.396Z,63.9
2022-11-06T16:10:19.444Z,63.7
2022-11-06T16:15:16.301Z,63.8
2022-11-06T16:20:19.431Z,63.7
2022-11-06T16:25:19.583Z,63.3
2022-11-06T16:30:24.673Z,63.5
2022-11-06T16:35:19.321Z,63.4
2022-11-06T16:40:19.528Z,63.4
2022-11-06T16:45:19.359Z,63.3
2022-11-06T16:50:19.419Z,63.3
2022-11-06T16:55:19.363Z,63.3
2022-11-06T17:00:19.454Z,63.4
2022-11-06T17:05:16.309Z,63.5
2022-11-06T17:10:16.354Z,63.6
2022-11-06T17:15:19.435Z,63.4
2022-11-06T17:20:19.527Z,63.5
2022-11-06T17:25:19.479Z,63.5
2022-11-06T17:30:19.402Z,63.0
2022-11-06T17:35:19.635Z,63.1
2022-11-06T17:40:19.582Z,63.2
2022-11-06T17:45:19.498Z,62.9
2022-11-06T17:50:19.605Z,63.0
2022-11-06T17:55:19.525Z,63.1
2022-11-06T18:00:16.418Z,63.2
2022-11-06T18:05:16.636Z,63.4
2022-11-06T18:10:19.561Z,63.0
2022-11-06T18:15:19.524Z,62.3
2022-11-06T18:20:19.494Z,62.3
2022-11-06T18:25:19.503Z,62.4
2022-11-06T18:30:19.417Z,62.3
2022-11-06T18:35:19.751Z,62.8
2022-11-06T18:40:19.707Z,62.7
2022-11-06T18:45:19.601Z,62.8
2022-11-06T18:50:16.514Z,62.6
2022-11-06T18:55:16.460Z,62.6
2022-11-06T19:00:19.517Z,62.1
2022-11-06T19:05:19.623Z,62.1
2022-11-06T19:10:19.640Z,62.0
2022-11-06T19:15:19.691Z,62.0
2022-11-06T19:20:19.601Z,62.4
2022-11-06T19:25:19.678Z,61.9
2022-11-06T19:30:19.546Z,61.9
2022-11-06T19:35:19.618Z,62.0
2022-11-06T19:40:19.639Z,62.3
2022-11-06T19:45:16.512Z,62.3
2022-11-06T19:50:21.992Z,62.2
2022-11-06T19:55:24.605Z,62.2
2022-11-06T20:00:19.672Z,62.1
2022-11-06T20:05:19.609Z,62.0
2022-11-06T20:10:19.647Z,62.0
2022-11-06T20:15:23.765Z,62.0
2022-11-06T20:20:19.625Z,62.0
2022-11-06T20:25:19.679Z,61.9
2022-11-06T20:30:19.590Z,61.9
2022-11-06T20:35:19.750Z,62.2
2022-11-06T20:40:16.584Z,62.2
2022-11-06T20:45:19.914Z,62.1
2022-11-06T20:50:19.863Z,62.0
2022-11-06T20:55:19.704Z,62.0
2022-11-06T21:00:19.695Z,61.9
2022-11-06T21:05:19.757Z,61.9
2022-11-06T21:10:19.764Z,61.9
2022-11-06T21:15:19.709Z,62.3
2022-11-06T21:20:22.771Z,62.1
2022-11-06T21:25:19.798Z,62.1
2022-11-06T21:30:16.665Z,62.0
2022-11-06T21:35:16.595Z,62.0
2022-11-06T21:40:20.004Z,61.9
2022-11-06T21:45:19.863Z,62.2
2022-11-06T21:50:28.225Z,62.1
2022-11-06T21:55:19.813Z,62.0
2022-11-06T22:00:19.950Z,61.9
2022-11-06T22:05:19.801Z,62.0
2022-11-06T22:10:19.821Z,61.9
2022-11-06T22:15:19.870Z,61.9
2022-11-06T22:20:19.783Z,61.9
2022-11-06T22:25:16.776Z,62.2
2022-11-06T22:30:16.852Z,62.1
2022-11-06T22:35:19.943Z,62.1
2022-11-06T22:40:19.910Z,62.0
2022-11-06T22:45:19.862Z,62.0
2022-11-06T22:50:19.884Z,62.0
2022-11-06T22:55:19.943Z,62.3
2022-11-06T23:00:19.903Z,62.3
2022-11-06T23:05:19.996Z,62.2
2022-11-06T23:10:20.033Z,62.2
2022-11-06T23:15:16.789Z,62.1
2022-11-06T23:20:16.741Z,62.5
2022-11-06T23:25:19.914Z,62.3
2022-11-06T23:30:19.770Z,62.4
2022-11-06T23:35:22.731Z,62.3
2022-11-06T23:40:20.455Z,62.3
2022-11-06T23:45:19.982Z,62.3
2022-11-06T23:50:19.877Z,62.5
2022-11-06T23:55:19.881Z,62.4
